Time;durP1;ratioP1;P1;durP2;ratioP2;P2;SDS_P1;SDS_P2;PMS_P1;PMS_P2;Temp;Humidity;BMP_temperature;BMP_pressure;BME280_temperature;BME280_humidity;BME280_pressure;Samples;Min_cycle;Max_cycle;Signal;HPM_P1;HPM_P2
2022/04/08 00:02:13;;;;;;;10.75;2.15;;;4.90;1.00;;;;;;5117464;28;20043;-41
2022/04/08 00:04:39;;;;;;;11.18;1.33;;;4.90;1.00;;;;;;5098558;28;20067;-37
2022/04/08 00:07:05;;;;;;;5.85;0.80;;;4.90;1.00;;;;;;5115803;28;20058;-38
2022/04/08 00:09:31;;;;;;;7.55;1.02;;;4.80;33.30;;;;;;5115280;28;20086;-42
2022/04/08 00:11:57;;;;;;;3.72;1.10;;;4.80;99.90;;;;;;5115683;28;20043;-40
2022/04/08 00:14:24;;;;;;;4.53;0.70;;;4.70;99.90;;;;;;5098018;28;20059;-36
2022/04/08 00:16:49;;;;;;;7.68;0.95;;;4.10;1.00;;;;;;5080796;28;20083;-35
2022/04/08 00:19:15;;;;;;;7.25;0.75;;;3.90;99.90;;;;;;5115481;28;20071;-35
2022/04/08 00:21:41;;;;;;;4.95;0.80;;;3.70;1.00;;;;;;5097267;28;20040;-33
2022/04/08 00:24:07;;;;;;;7.65;0.95;;;3.70;1.00;;;;;;5097457;28;20040;-34
2022/04/08 00:26:33;;;;;;;8.60;1.02;;;3.70;26.70;;;;;;5097613;28;20043;-33
2022/04/08 00:28:59;;;;;;;9.53;1.20;;;3.70;52.20;;;;;;5097218;28;20051;-36
2022/04/08 00:31:25;;;;;;;6.60;0.85;;;3.70;43.50;;;;;;5097780;28;20048;-34
2022/04/08 00:33:51;;;;;;;7.22;0.60;;;3.70;30.90;;;;;;5097448;28;20059;-35
2022/04/08 00:36:16;;;;;;;7.63;1.05;;;3.70;34.50;;;;;;5115235;28;20039;-36
2022/04/08 00:38:42;;;;;;;4.40;0.90;;;3.80;42.70;;;;;;5115543;28;20050;-36
2022/04/08 00:41:08;;;;;;;12.20;1.98;;;3.90;4.90;;;;;;5115733;28;20503;-34
2022/04/08 00:43:38;;;;;;;11.82;1.95;;;3.90;1.00;;;;;;5115170;28;20439;-33
2022/04/08 00:46:06;;;;;;;11.77;1.80;;;3.90;99.90;;;;;;5115092;28;20109;-32
2022/04/08 00:48:33;;;;;;;21.08;3.10;;;3.90;99.90;;;;;;5097055;28;20055;-42
2022/04/08 00:51:00;;;;;;;11.38;1.77;;;3.80;1.00;;;;;;5115620;28;20074;-40
2022/04/08 00:53:26;;;;;;;13.55;2.47;;;3.70;1.00;;;;;;5097891;28;20043;-36
2022/04/08 00:55:53;;;;;;;14.50;1.92;;;3.50;1.00;;;;;;5115247;28;20077;-40
2022/04/08 00:58:18;;;;;;;15.65;2.05;;;3.30;1.00;;;;;;5114936;28;20048;-41
2022/04/08 01:00:44;;;;;;;17.70;2.67;;;3.20;48.50;;;;;;5114547;28;20044;-39
2022/04/08 01:03:10;;;;;;;17.63;2.30;;;3.30;89.70;;;;;;5115371;28;20063;-37
2022/04/08 01:05:36;;;;;;;14.85;2.47;;;3.10;99.90;;;;;;5074094;28;1154906;-40
2022/04/08 01:08:03;;;;;;;11.48;1.70;;;3.30;99.90;;;;;;5115712;28;20085;-41
2022/04/08 01:10:29;;;;;;;11.40;1.92;;;3.30;99.90;;;;;;5097707;28;20044;-41
2022/04/08 01:12:55;;;;;;;12.93;1.60;;;3.30;99.90;;;;;;5115585;28;20044;-40
2022/04/08 01:15:22;;;;;;;10.77;1.40;;;3.40;99.90;;;;;;5097384;28;20119;-40
2022/04/08 01:17:49;;;;;;;5.93;1.15;;;3.30;99.90;;;;;;5116095;28;20126;-40
2022/04/08 01:20:16;;;;;;;11.97;1.90;;;3.20;1.00;;;;;;5097938;28;20056;-40
2022/04/08 01:22:42;;;;;;;10.40;1.23;;;3.20;1.00;;;;;;5115052;28;20048;-39
2022/04/08 01:25:10;;;;;;;11.68;2.35;;;3.20;1.00;;;;;;5115455;28;20134;-39
2022/04/08 01:27:36;;;;;;;7.30;1.20;;;3.20;1.00;;;;;;5097797;28;20427;-37
2022/04/08 01:30:04;;;;;;;8.77;0.90;;;3.20;99.90;;;;;;5097897;28;20057;-36
2022/04/08 01:32:30;;;;;;;7.18;1.50;;;3.20;1.00;;;;;;5115835;28;20051;-35
2022/04/08 01:34:56;;;;;;;13.10;1.20;;;3.20;1.00;;;;;;5096710;28;20036;-35
2022/04/08 01:37:21;;;;;;;6.70;0.93;;;3.10;1.00;;;;;;5097016;28;20101;-34
2022/04/08 01:39:47;;;;;;;8.00;1.58;;;3.10;1.00;;;;;;5115063;28;20047;-35
2022/04/08 01:42:13;;;;;;;11.70;1.73;;;3.10;1.00;;;;;;5113744;28;20052;-34
2022/04/08 01:44:40;;;;;;;5.32;0.82;;;3.00;1.00;;;;;;5115008;28;20477;-35
2022/04/08 01:47:06;;;;;;;12.10;1.17;;;3.00;1.00;;;;;;5096753;28;20548;-34
2022/04/08 01:49:32;;;;;;;7.88;1.10;;;3.00;1.00;;;;;;5097596;28;20082;-34
2022/04/08 01:51:57;;;;;;;8.68;1.52;;;3.00;1.00;;;;;;5080411;28;20079;-34
2022/04/08 01:54:23;;;;;;;10.90;2.33;;;3.00;29.40;;;;;;5079896;28;20048;-34
2022/04/08 01:56:49;;;;;;;12.38;2.15;;;3.10;94.60;;;;;;5096596;28;20482;-34
2022/04/08 01:59:15;;;;;;;18.75;1.77;;;3.30;99.90;;;;;;5080226;28;20127;-34
2022/04/08 02:01:41;;;;;;;12.93;1.83;;;3.30;99.90;;;;;;5080119;28;20461;-34
2022/04/08 02:04:07;;;;;;;9.52;1.40;;;3.30;99.90;;;;;;5079864;28;20079;-34
2022/04/08 02:06:36;;;;;;;16.27;3.67;;;3.40;97.60;;;;;;5095936;28;20140;-34
2022/04/08 02:09:02;;;;;;;15.47;3.00;;;3.40;85.50;;;;;;5080067;28;20476;-34
2022/04/08 02:11:28;;;;;;;12.07;2.10;;;3.50;39.20;;;;;;5114508;28;20172;-34
2022/04/08 02:13:54;;;;;;;8.02;1.88;;;3.60;1.00;;;;;;5114509;28;20091;-34
2022/04/08 02:16:19;;;;;;;11.18;1.65;;;3.60;1.00;;;;;;5097118;28;20047;-34
2022/04/08 02:18:45;;;;;;;9.20;1.27;;;3.60;1.00;;;;;;5114436;28;20048;-35
2022/04/08 02:21:11;;;;;;;14.35;1.80;;;3.80;99.90;;;;;;5096423;28;20108;-35
2022/04/08 02:23:37;;;;;;;10.00;1.70;;;3.70;69.80;;;;;;5096288;28;20051;-36
2022/04/08 02:26:05;;;;;;;7.50;1.65;;;3.70;1.00;;;;;;5114310;28;20040;-37
2022/04/08 02:28:32;;;;;;;13.77;2.72;;;3.50;55.00;;;;;;5114819;28;20040;-37
2022/04/08 02:30:58;;;;;;;7.13;1.23;;;3.50;99.90;;;;;;5114251;28;20077;-38
2022/04/08 02:33:24;;;;;;;10.07;1.38;;;3.30;99.90;;;;;;5114069;28;20047;-38
2022/04/08 02:35:50;;;;;;;7.97;1.10;;;3.30;1.00;;;;;;5079328;28;20107;-39
2022/04/08 02:38:16;;;;;;;8.00;0.88;;;3.20;1.00;;;;;;5114971;28;20056;-39
2022/04/08 02:40:42;;;;;;;9.20;1.43;;;3.10;1.00;;;;;;5096194;28;20043;-39
2022/04/08 02:43:07;;;;;;;8.77;1.33;;;3.10;1.00;;;;;;5114153;28;20048;-39
2022/04/08 02:45:33;;;;;;;15.10;1.50;;;3.10;1.00;;;;;;5114092;28;20378;-41
2022/04/08 02:47:59;;;;;;;8.70;2.17;;;3.10;1.00;;;;;;5114601;28;20492;-42
2022/04/08 02:50:24;;;;;;;14.30;2.77;;;3.30;1.00;;;;;;5114038;28;20556;-41
2022/04/08 02:52:50;;;;;;;9.00;2.50;;;3.40;1.00;;;;;;5114021;28;20118;-42
2022/04/08 02:55:16;;;;;;;14.30;2.60;;;3.60;99.90;;;;;;5096086;28;20054;-41
2022/04/08 02:57:46;;;;;;;17.33;2.45;;;3.60;99.90;;;;;;5114601;28;20052;-42
2022/04/08 03:00:19;;;;;;;10.33;1.60;;;3.60;99.90;;;;;;5113953;28;20089;-42
2022/04/08 03:02:46;;;;;;;8.07;1.03;;;3.60;99.90;;;;;;5078891;28;20048;-42
2022/04/08 03:05:13;;;;;;;8.38;1.38;;;3.60;99.90;;;;;;5113849;28;20066;-42
2022/04/08 03:07:39;;;;;;;8.70;1.57;;;3.60;99.90;;;;;;5113906;28;20051;-42
2022/04/08 03:10:08;;;;;;;6.63;1.07;;;3.50;99.90;;;;;;5113880;28;20044;-42
2022/04/08 03:12:34;;;;;;;9.83;1.60;;;3.50;99.90;;;;;;5096230;28;20044;-42
2022/04/08 03:15:00;;;;;;;8.07;1.52;;;3.40;99.90;;;;;;5113830;28;20043;-42
2022/04/08 03:17:26;;;;;;;4.00;1.07;;;3.50;99.90;;;;;;5113790;28;20048;-42
2022/04/08 03:19:52;;;;;;;7.43;0.93;;;3.50;99.90;;;;;;5113801;28;20044;-43
2022/04/08 03:22:20;;;;;;;3.93;1.20;;;3.40;99.90;;;;;;5095989;28;20040;-42
2022/04/08 03:24:50;;;;;;;5.17;1.20;;;3.40;99.90;;;;;;5095924;28;20132;-42
2022/04/08 03:27:16;;;;;;;4.97;0.90;;;3.30;99.90;;;;;;5079774;28;20048;-43
2022/04/08 03:29:42;;;;;;;6.57;0.97;;;3.20;99.90;;;;;;5078834;28;20499;-42
2022/04/08 03:32:09;;;;;;;7.13;1.47;;;3.10;95.70;;;;;;5113684;28;20085;-43
2022/04/08 03:34:35;;;;;;;10.00;0.90;;;3.10;2.10;;;;;;5113845;28;20054;-43
2022/04/08 03:37:01;;;;;;;10.43;1.47;;;3.10;23.60;;;;;;5113614;28;20078;-42
2022/04/08 03:39:26;;;;;;;9.03;1.20;;;3.10;15.40;;;;;;5113631;28;20104;-42
2022/04/08 03:41:53;;;;;;;10.63;2.60;;;3.20;99.90;;;;;;5113503;28;20088;-42
2022/04/08 03:44:19;;;;;;;9.83;1.93;;;3.30;99.90;;;;;;5096536;28;20478;-43
2022/04/08 03:46:46;;;;;;;9.43;2.60;;;3.50;99.90;;;;;;5099356;28;20435;-42
2022/04/08 03:49:16;;;;;;;9.87;1.70;;;3.90;99.90;;;;;;5117271;28;20043;-42
2022/04/08 03:51:46;;;;;;;6.23;1.23;;;3.90;99.90;;;;;;5099076;28;20085;-43
2022/04/08 03:54:12;;;;;;;7.53;1.73;;;3.50;99.90;;;;;;5117471;28;20039;-41
2022/04/08 03:56:41;;;;;;;8.43;1.63;;;2.80;10.60;;;;;;5117149;28;20039;-42
2022/04/08 03:59:08;;;;;;;4.17;0.87;;;2.50;99.90;;;;;;5117086;28;20047;-43
2022/04/08 04:01:34;;;;;;;6.73;0.87;;;2.40;99.90;;;;;;5099580;28;20093;-42
2022/04/08 04:04:00;;;;;;;10.33;1.60;;;2.40;1.00;;;;;;5116987;28;20059;-42
2022/04/08 04:06:26;;;;;;;8.17;1.30;;;2.30;1.00;;;;;;5116644;28;20056;-42
2022/04/08 04:08:51;;;;;;;11.17;1.50;;;2.40;1.00;;;;;;5116864;28;20413;-41
2022/04/08 04:11:17;;;;;;;5.97;1.10;;;2.40;1.90;;;;;;5081986;28;20046;-40
2022/04/08 04:13:43;;;;;;;9.40;1.77;;;2.40;23.90;;;;;;5116807;28;20104;-40
2022/04/08 04:16:09;;;;;;;4.28;0.82;;;2.30;55.40;;;;;;5116742;28;20481;-39
2022/04/08 04:18:35;;;;;;;4.97;1.50;;;2.30;46.20;;;;;;5116753;28;20047;-39
2022/04/08 04:21:01;;;;;;;6.68;1.05;;;2.30;41.80;;;;;;5115641;28;20546;-38
2022/04/08 04:23:27;;;;;;;3.90;0.60;;;2.20;24.00;;;;;;5099443;28;20086;-36
2022/04/08 04:25:52;;;;;;;7.10;1.27;;;2.10;1.00;;;;;;5099250;28;20043;-39
2022/04/08 04:28:18;;;;;;;10.00;1.15;;;2.00;1.00;;;;;;5098611;28;20485;-37
2022/04/08 04:30:44;;;;;;;5.43;1.05;;;1.90;1.00;;;;;;5116964;28;20083;-38
2022/04/08 04:33:10;;;;;;;4.25;1.40;;;1.90;1.00;;;;;;5081609;28;20130;-38
2022/04/08 04:35:37;;;;;;;3.90;0.80;;;1.80;1.00;;;;;;5116436;28;20056;-35
2022/04/08 04:38:02;;;;;;;4.90;1.30;;;1.90;1.00;;;;;;5115371;28;20043;-35
2022/04/08 04:40:29;;;;;;;3.53;0.77;;;2.30;1.00;;;;;;5116557;28;20070;-36
2022/04/08 04:42:55;;;;;;;8.68;1.50;;;2.50;99.90;;;;;;5116195;28;20473;-37
2022/04/08 04:45:22;;;;;;;6.53;1.20;;;2.70;99.90;;;;;;5098782;28;20054;-35
2022/04/08 04:47:48;;;;;;;4.80;1.50;;;2.80;99.90;;;;;;5116194;28;20047;-35
2022/04/08 04:50:13;;;;;;;8.80;2.25;;;2.80;99.90;;;;;;5116362;28;20093;-35
2022/04/08 04:52:39;;;;;;;7.47;1.30;;;2.70;99.90;;;;;;5116100;28;20112;-34
2022/04/08 04:55:05;;;;;;;3.63;1.10;;;2.60;99.90;;;;;;5080564;28;20135;-36
2022/04/08 04:57:31;;;;;;;6.95;1.33;;;2.50;99.90;;;;;;5115437;28;20062;-38
2022/04/08 04:59:57;;;;;;;6.10;1.40;;;2.50;99.90;;;;;;5081798;28;20130;-36
2022/04/08 05:02:22;;;;;;;4.47;1.00;;;2.50;99.90;;;;;;5097599;28;20044;-37
2022/04/08 05:04:48;;;;;;;3.13;0.82;;;2.60;99.90;;;;;;5097440;28;20135;-37
2022/04/08 05:07:14;;;;;;;2.65;0.98;;;2.60;99.90;;;;;;5116322;28;20435;-36
2022/04/08 05:09:40;;;;;;;6.67;1.00;;;2.50;99.90;;;;;;5116287;28;20374;-36
2022/04/08 05:12:08;;;;;;;4.55;0.80;;;2.50;99.90;;;;;;5116451;28;20043;-36
2022/04/08 05:14:34;;;;;;;3.10;0.80;;;2.40;99.90;;;;;;5097037;28;20051;-35
2022/04/08 05:16:59;;;;;;;3.55;1.00;;;2.30;99.90;;;;;;5097823;28;20047;-34
2022/04/08 05:19:25;;;;;;;6.88;0.90;;;2.20;99.90;;;;;;5115418;28;20492;-34
2022/04/08 05:21:52;;;;;;;5.97;1.53;;;2.20;99.90;;;;;;5097275;28;20091;-36
2022/04/08 05:24:21;;;;;;;8.73;2.07;;;2.10;99.90;;;;;;5115339;28;20058;-35
2022/04/08 05:26:47;;;;;;;1.73;0.67;;;2.10;99.90;;;;;;5115251;28;20052;-37
2022/04/08 05:29:13;;;;;;;3.70;1.15;;;2.30;99.90;;;;;;5115302;28;20048;-35
2022/04/08 05:31:38;;;;;;;7.13;1.10;;;2.20;99.90;;;;;;5115493;28;20047;-35
2022/04/08 05:34:04;;;;;;;3.70;1.38;;;2.30;99.90;;;;;;5097465;28;20405;-34
2022/04/08 05:36:30;;;;;;;5.57;0.55;;;2.20;99.90;;;;;;5115590;28;20083;-36
2022/04/08 05:38:56;;;;;;;6.70;2.20;;;2.30;99.90;;;;;;5115309;28;20126;-34
2022/04/08 05:41:22;;;;;;;3.70;0.80;;;2.40;99.90;;;;;;5079793;28;20108;-34
2022/04/08 05:43:48;;;;;;;3.40;0.75;;;2.50;1.00;;;;;;5096897;28;20039;-34
2022/04/08 05:46:14;;;;;;;5.10;1.00;;;2.70;99.90;;;;;;5114984;28;20046;-36
2022/04/08 05:48:40;;;;;;;6.20;1.88;;;2.80;99.90;;;;;;5096755;28;20047;-35
2022/04/08 05:51:06;;;;;;;3.72;1.25;;;2.80;99.90;;;;;;5114808;28;20199;-35
2022/04/08 05:53:32;;;;;;;5.80;1.05;;;2.90;99.90;;;;;;5114677;28;20051;-35
2022/04/08 05:55:59;;;;;;;3.40;1.02;;;3.00;99.90;;;;;;5114678;28;20100;-35
2022/04/08 05:58:26;;;;;;;2.05;0.80;;;3.00;1.00;;;;;;5114745;28;20043;-35
2022/04/08 06:00:52;;;;;;;3.50;1.02;;;3.10;1.00;;;;;;5097090;28;20046;-36
2022/04/08 06:03:18;;;;;;;3.00;0.98;;;3.10;99.90;;;;;;5096677;28;20043;-35
2022/04/08 06:05:43;;;;;;;2.85;0.88;;;3.00;99.90;;;;;;5114172;28;20056;-35
2022/04/08 06:08:10;;;;;;;2.63;1.08;;;3.10;99.90;;;;;;5114174;28;20070;-36
2022/04/08 06:10:36;;;;;;;3.63;1.45;;;3.20;99.90;;;;;;5096505;28;20047;-34
2022/04/08 06:13:02;;;;;;;6.35;1.10;;;3.30;99.90;;;;;;5114419;28;20039;-35
2022/04/08 06:15:28;;;;;;;8.18;1.05;;;3.40;99.90;;;;;;5097238;28;20047;-36
2022/04/08 06:17:55;;;;;;;7.13;1.00;;;3.40;99.90;;;;;;5114391;28;20048;-37
2022/04/08 06:20:22;;;;;;;5.45;1.17;;;3.50;99.90;;;;;;5079026;28;20581;-36
2022/04/08 06:22:48;;;;;;;4.88;1.08;;;3.60;99.90;;;;;;5115335;28;20050;-37
2022/04/08 06:25:20;;;;;;;8.35;1.88;;;3.70;99.90;;;;;;5114331;28;20039;-36
2022/04/08 06:27:56;;;;;;;5.63;1.10;;;3.80;99.90;;;;;;5114233;28;20176;-36
2022/04/08 06:30:22;;;;;;;10.57;1.88;;;3.90;99.90;;;;;;5114844;28;20047;-36
2022/04/08 06:32:48;;;;;;;8.80;1.83;;;4.00;99.90;;;;;;5114249;28;20046;-36
2022/04/08 06:35:14;;;;;;;8.52;1.60;;;4.10;99.90;;;;;;5114049;28;20039;-39
2022/04/08 06:37:40;;;;;;;8.25;1.50;;;4.10;99.90;;;;;;5114002;28;20055;-40
2022/04/08 06:40:10;;;;;;;11.40;1.80;;;4.20;99.90;;;;;;5114365;28;20060;-39
2022/04/08 06:42:38;;;;;;;5.90;1.63;;;4.30;99.90;;;;;;5095837;28;20048;-39
2022/04/08 06:45:05;;;;;;;6.88;1.48;;;4.30;99.90;;;;;;5114313;28;20047;-40
2022/04/08 06:47:31;;;;;;;8.65;1.55;;;4.40;99.90;;;;;;5113975;28;20096;-39
2022/04/08 06:49:57;;;;;;;6.93;2.17;;;4.50;99.90;;;;;;5114478;28;20047;-40
2022/04/08 06:52:23;;;;;;;10.90;1.65;;;4.50;99.90;;;;;;5095851;28;20400;-39
2022/04/08 06:54:49;;;;;;;7.40;1.50;;;4.60;99.90;;;;;;5095908;28;20059;-41
2022/04/08 06:57:15;;;;;;;7.53;1.52;;;4.70;99.90;;;;;;5113867;28;20165;-41
2022/04/08 06:59:41;;;;;;;5.95;1.25;;;4.70;99.90;;;;;;5096718;28;20051;-41
2022/04/08 07:02:08;;;;;;;5.80;1.02;;;4.90;99.90;;;;;;5112581;28;20039;-41
2022/04/08 07:04:35;;;;;;;11.00;2.30;;;4.90;99.90;;;;;;5113993;28;20185;-42
2022/04/08 07:07:04;;;;;;;9.45;2.22;;;5.00;99.90;;;;;;5114963;28;20055;-43
2022/04/08 07:09:33;;;;;;;8.13;1.42;;;5.30;99.90;;;;;;5134473;28;20047;-43
2022/04/08 07:12:00;;;;;;;7.82;1.30;;;5.30;84.20;;;;;;5134140;28;20047;-43
2022/04/08 07:14:26;;;;;;;7.10;1.38;;;5.40;99.90;;;;;;5090064;28;20039;-43
2022/04/08 07:16:52;;;;;;;6.32;1.27;;;5.50;5.30;;;;;;5114388;28;20069;-43
2022/04/08 07:19:18;;;;;;;9.63;1.23;;;5.60;1.00;;;;;;5096815;28;20044;-43
2022/04/08 07:21:43;;;;;;;8.93;2.22;;;5.80;1.00;;;;;;5083205;28;20130;-42
2022/04/08 07:24:09;;;;;;;9.98;1.48;;;6.00;14.10;;;;;;5117660;28;20048;-43
2022/04/08 07:26:35;;;;;;;2.85;0.88;;;5.90;1.00;;;;;;5099416;28;20043;-42
2022/04/08 07:29:00;;;;;;;4.72;1.42;;;5.80;1.00;;;;;;5117294;28;20417;-43
2022/04/08 07:31:26;;;;;;;3.20;1.17;;;5.90;1.00;;;;;;5099287;28;20058;-42
2022/04/08 07:33:52;;;;;;;4.30;0.98;;;5.30;1.00;;;;;;5099945;28;20407;-43
2022/04/08 07:36:18;;;;;;;3.60;0.50;;;4.90;1.00;;;;;;5099697;28;20047;-43
2022/04/08 07:38:43;;;;;;;2.38;0.60;;;4.70;1.00;;;;;;5098763;28;20112;-43
2022/04/08 07:41:09;;;;;;;2.65;0.52;;;4.80;99.90;;;;;;5117191;28;20075;-43
2022/04/08 09:12:18;;;;;;;6.18;1.13;;;6.70;1.00;;;;;;5100483;28;20070;-44
2022/04/08 09:14:51;;;;;;;5.20;0.80;;;6.60;99.90;;;;;;5114851;28;20047;-44
2022/04/08 09:17:18;;;;;;;2.90;0.70;;;6.90;85.40;;;;;;5097320;28;20128;-46
2022/04/08 09:19:55;;;;;;;5.20;0.85;;;6.40;99.90;;;;;;5116534;27;20189;-45
2022/04/08 09:22:25;;;;;;;3.83;0.40;;;5.90;1.00;;;;;;5099230;27;20497;-45
2022/04/08 09:24:51;;;;;;;3.30;0.80;;;5.40;1.00;;;;;;5100571;27;20055;-46
2022/04/08 09:38:25;;;;;;;9.33;1.17;;;7.80;1.00;;;;;;5130638;27;20055;-44
2022/04/08 09:41:02;;;;;;;6.47;1.10;;;8.20;99.90;;;;;;5115436;27;20297;-44
2022/04/08 09:43:36;;;;;;;8.60;1.67;;;8.70;99.90;;;;;;5117274;27;20126;-43
2022/04/08 09:46:18;;;;;;;5.63;1.15;;;8.70;99.90;;;;;;5135466;27;20089;-45
2022/04/08 09:48:44;;;;;;;10.60;1.35;;;8.10;99.90;;;;;;5133803;27;20077;-43
2022/04/08 09:51:21;;;;;;;5.05;0.68;;;7.60;99.90;;;;;;5111496;28;20156;-45
2022/04/08 09:53:54;;;;;;;4.38;0.70;;;7.40;99.90;;;;;;5125454;27;20051;-45
2022/04/08 09:56:23;;;;;;;4.03;0.65;;;6.80;99.90;;;;;;5105888;27;20039;-46
2022/04/08 09:59:11;;;;;;;3.33;0.65;;;6.20;99.90;;;;;;5125578;27;20043;-44
2022/04/08 10:01:38;;;;;;;5.43;0.57;;;6.00;99.90;;;;;;5114581;28;20550;-45
2022/04/08 10:04:05;;;;;;;3.92;1.02;;;5.80;99.90;;;;;;5097493;28;20153;-44
2022/04/08 10:06:31;;;;;;;7.25;0.93;;;5.80;99.90;;;;;;5116511;27;20043;-45
2022/04/08 10:08:59;;;;;;;5.85;0.93;;;6.30;99.90;;;;;;5116638;27;20047;-45
2022/04/08 10:12:04;;;;;;;9.43;1.10;;;7.40;99.90;;;;;;5114936;27;20051;-43
2022/04/08 10:14:49;;;;;;;6.85;0.90;;;7.80;99.90;;;;;;5093254;28;20466;-44
2022/04/08 10:17:16;;;;;;;4.93;1.00;;;8.30;99.90;;;;;;5093512;28;20127;-44
2022/04/08 10:19:41;;;;;;;6.93;1.42;;;8.40;99.90;;;;;;5093188;28;20119;-43
2022/04/08 10:22:18;;;;;;;6.05;0.75;;;8.80;99.90;;;;;;5092843;28;20451;-43
2022/04/08 10:24:52;;;;;;;4.38;1.00;;;9.30;99.90;;;;;;5108100;28;20087;-43
2022/04/08 10:27:31;;;;;;;3.40;0.68;;;8.80;1.00;;;;;;5093591;28;20504;-44
2022/04/08 10:29:57;;;;;;;3.47;0.70;;;6.90;99.90;;;;;;5093811;28;20048;-46
2022/04/08 10:32:22;;;;;;;3.67;0.50;;;5.70;99.90;;;;;;5093877;28;20093;-47
2022/04/08 10:34:49;;;;;;;3.05;0.50;;;5.00;1.00;;;;;;5082827;28;20497;-47
2022/04/08 10:37:21;;;;;;;7.70;0.57;;;4.80;1.00;;;;;;5072655;28;20048;-48
2022/04/08 10:40:04;;;;;;;9.02;0.98;;;4.80;52.60;;;;;;5076200;28;20101;-42
2022/04/08 10:42:33;;;;;;;6.45;1.30;;;5.00;54.00;;;;;;5072634;28;20466;-42
2022/04/08 10:44:59;;;;;;;6.80;1.40;;;6.00;99.90;;;;;;5073501;28;20091;-40
2022/04/08 10:47:24;;;;;;;4.80;1.15;;;7.10;99.90;;;;;;5075249;28;20082;-40
2022/04/08 10:50:04;;;;;;;5.68;1.40;;;7.50;1.00;;;;;;5092779;28;20048;-39
2022/04/08 10:52:39;;;;;;;5.60;1.48;;;8.10;99.90;;;;;;5092346;28;20116;-38
2022/04/08 10:55:08;;;;;;;6.50;1.45;;;8.30;99.90;;;;;;5098464;28;20048;-37
2022/04/08 10:57:36;;;;;;;4.95;1.63;;;8.60;99.90;;;;;;5098615;28;20126;-39
2022/04/08 11:00:11;;;;;;;3.03;0.88;;;9.10;99.90;;;;;;5097461;28;20501;-39
2022/04/08 11:02:38;;;;;;;5.40;1.23;;;9.40;52.80;;;;;;5112217;28;20096;-38
2022/04/08 11:05:05;;;;;;;4.43;0.63;;;9.30;1.00;;;;;;5097642;28;20104;-38
2022/04/08 11:07:32;;;;;;;5.63;1.00;;;9.30;65.20;;;;;;5097381;28;20093;-38
2022/04/08 11:09:58;;;;;;;5.97;0.60;;;9.20;99.90;;;;;;5075645;28;20055;-38
2022/04/08 11:12:25;;;;;;;4.47;0.90;;;8.40;1.00;;;;;;5089753;28;20047;-39
2022/04/08 11:14:58;;;;;;;6.88;1.20;;;8.10;83.50;;;;;;5082787;28;20148;-39
2022/04/08 11:17:34;;;;;;;9.18;1.45;;;8.10;99.90;;;;;;5118922;27;20042;-37
2022/04/08 11:20:01;;;;;;;3.50;0.68;;;8.60;28.10;;;;;;5117835;28;20142;-38
2022/04/08 11:22:58;;;;;;;5.03;0.80;;;9.20;99.90;;;;;;5117668;28;20043;-38
2022/04/08 11:25:29;;;;;;;7.20;0.98;;;9.30;1.00;;;;;;5083114;28;20051;-38
2022/04/08 11:28:04;;;;;;;5.72;1.05;;;8.70;1.00;;;;;;5118882;27;20177;-38
2022/04/08 11:30:32;;;;;;;6.03;0.52;;;8.70;1.00;;;;;;5117617;28;20047;-38
2022/04/08 11:32:58;;;;;;;4.90;0.73;;;8.40;1.00;;;;;;5117808;28;20043;-38
2022/04/08 11:35:32;;;;;;;7.38;2.08;;;8.60;1.00;;;;;;5099228;28;20051;-37
2022/04/08 11:37:58;;;;;;;8.30;1.20;;;8.70;1.00;;;;;;5118329;28;20043;-37
2022/04/08 11:40:24;;;;;;;9.35;1.33;;;8.70;35.10;;;;;;5118438;27;20077;-37
2022/04/08 11:42:50;;;;;;;8.48;1.00;;;8.70;1.00;;;;;;5118382;27;20039;-37
2022/04/08 11:45:16;;;;;;;5.25;1.13;;;8.70;1.00;;;;;;5098910;28;20046;-37
2022/04/08 11:47:46;;;;;;;11.35;1.05;;;8.70;1.00;;;;;;5117799;28;20051;-37
2022/04/08 11:50:13;;;;;;;4.53;0.85;;;8.60;1.00;;;;;;5099841;28;20043;-36
2022/04/08 11:52:38;;;;;;;6.38;1.13;;;8.50;1.00;;;;;;5100401;28;20039;-36
2022/04/08 11:55:06;;;;;;;8.40;1.38;;;9.00;22.70;;;;;;5117058;28;20035;-36
2022/04/08 11:57:33;;;;;;;8.35;1.73;;;9.60;1.00;;;;;;5098894;28;20376;-35
2022/04/08 12:00:06;;;;;;;10.13;1.42;;;9.60;1.00;;;;;;5117860;28;20044;-35
2022/04/08 12:02:32;;;;;;;7.13;1.38;;;9.50;1.00;;;;;;5116931;28;20152;-35
2022/04/08 12:04:58;;;;;;;4.53;0.57;;;9.60;1.00;;;;;;5118167;27;20094;-36
2022/04/08 12:07:28;;;;;;;8.38;1.13;;;9.60;1.00;;;;;;5098499;28;20043;-35
2022/04/08 12:09:56;;;;;;;4.57;0.77;;;9.80;1.00;;;;;;5099724;28;20052;-35
2022/04/08 12:12:24;;;;;;;10.50;0.85;;;10.00;1.00;;;;;;5116707;28;20070;-35
2022/04/08 12:14:50;;;;;;;5.43;1.02;;;10.00;99.90;;;;;;5116446;28;20087;-35
2022/04/08 12:17:15;;;;;;;5.85;1.20;;;9.90;1.00;;;;;;5099346;28;20081;-36
2022/04/08 12:19:41;;;;;;;5.20;1.10;;;8.30;87.70;;;;;;5117721;27;20511;-37
2022/04/08 12:22:16;;;;;;;5.18;1.15;;;7.20;99.90;;;;;;5116339;28;20503;-37
2022/04/08 12:24:43;;;;;;;6.15;1.05;;;6.40;99.90;;;;;;5112937;27;20373;-37
2022/04/08 12:27:19;;;;;;;5.75;0.80;;;5.90;1.00;;;;;;5137080;27;20046;-40
2022/04/08 12:30:10;;;;;;;5.72;0.60;;;5.60;99.90;;;;;;5137039;27;20039;-41
2022/04/08 12:32:39;;;;;;;6.72;0.73;;;5.60;99.90;;;;;;5085964;28;20047;-39
2022/04/08 12:35:08;;;;;;;2.28;0.57;;;6.00;99.90;;;;;;5122112;27;20048;-39
2022/04/08 12:37:35;;;;;;;5.22;0.80;;;6.30;60.20;;;;;;5119710;27;20353;-39
2022/04/08 12:40:02;;;;;;;4.13;0.77;;;6.90;1.00;;;;;;5137115;27;20082;-37
2022/04/08 12:42:28;;;;;;;3.78;0.80;;;7.70;1.00;;;;;;5119251;27;20123;-38
2022/04/08 12:44:53;;;;;;;7.43;0.70;;;8.20;99.90;;;;;;5107088;28;20111;-36
2022/04/08 12:47:19;;;;;;;4.13;0.77;;;8.50;99.90;;;;;;5082151;28;20051;-37
2022/04/08 12:49:45;;;;;;;7.88;1.15;;;8.80;99.90;;;;;;5118227;27;20078;-37
2022/04/08 12:52:10;;;;;;;4.20;0.63;;;8.80;99.90;;;;;;5115992;28;20127;-36
2022/04/08 12:54:36;;;;;;;6.45;0.98;;;9.20;99.90;;;;;;5116343;28;20054;-36
2022/04/08 12:57:02;;;;;;;3.88;0.70;;;9.30;99.90;;;;;;5121065;27;20394;-36
2022/04/08 12:59:28;;;;;;;6.05;1.25;;;9.40;86.30;;;;;;5121035;27;20054;-36
2022/04/08 13:01:53;;;;;;;5.63;0.80;;;9.30;1.00;;;;;;5098475;28;20130;-38
2022/04/08 13:04:19;;;;;;;4.97;0.70;;;8.80;1.00;;;;;;5114422;28;20100;-37
2022/04/08 13:06:45;;;;;;;4.53;0.82;;;8.40;1.00;;;;;;5097790;28;20040;-37
2022/04/08 13:09:12;;;;;;;4.95;0.98;;;8.60;1.00;;;;;;5097714;28;20047;-37
2022/04/08 13:11:37;;;;;;;3.72;0.57;;;8.90;1.00;;;;;;5115630;28;20043;-36
2022/04/08 13:14:03;;;;;;;2.83;0.63;;;9.20;1.00;;;;;;5116241;28;20059;-36
2022/04/08 13:16:29;;;;;;;3.85;0.77;;;9.30;99.90;;;;;;5097445;28;20051;-37
2022/04/08 13:18:54;;;;;;;2.90;0.52;;;9.40;99.90;;;;;;5079993;28;20055;-36
2022/04/08 13:21:20;;;;;;;6.57;0.60;;;9.20;99.90;;;;;;5115385;28;20044;-36
2022/04/08 13:23:46;;;;;;;4.13;0.93;;;9.00;99.90;;;;;;5097942;28;20051;-36
2022/04/08 13:26:12;;;;;;;2.60;0.60;;;9.20;1.00;;;;;;5080230;28;20050;-36
2022/04/08 13:28:37;;;;;;;4.10;0.57;;;9.60;99.90;;;;;;5116138;27;20075;-37
2022/04/08 13:31:03;;;;;;;4.50;1.25;;;9.70;1.00;;;;;;5116654;27;20043;-36
2022/04/08 13:33:29;;;;;;;6.25;1.35;;;9.20;1.00;;;;;;5124554;27;20047;-36
2022/04/08 13:35:56;;;;;;;6.82;0.50;;;9.20;1.00;;;;;;5111616;28;20384;-36
2022/04/08 13:38:25;;;;;;;6.80;0.80;;;8.90;1.00;;;;;;5115092;28;20058;-36
2022/04/08 13:40:50;;;;;;;9.77;1.15;;;8.90;1.00;;;;;;5097879;28;20067;-36
2022/04/08 13:43:17;;;;;;;9.35;1.33;;;9.00;1.00;;;;;;5080374;28;20039;-36
2022/04/08 13:45:42;;;;;;;8.60;1.50;;;8.60;1.00;;;;;;5096792;28;20400;-37
2022/04/08 13:48:08;;;;;;;8.02;1.23;;;8.40;1.00;;;;;;5115500;28;20044;-36
2022/04/08 13:50:34;;;;;;;4.68;0.82;;;8.50;1.00;;;;;;5097596;28;20136;-36
2022/04/08 13:53:00;;;;;;;8.50;1.10;;;8.80;1.00;;;;;;5114870;28;20477;-36
2022/04/08 13:55:26;;;;;;;10.85;1.70;;;8.80;1.00;;;;;;5126813;27;20035;-36
2022/04/08 13:57:51;;;;;;;7.80;0.90;;;8.60;1.00;;;;;;5116911;27;20468;-36
2022/04/08 14:00:17;;;;;;;5.13;1.20;;;8.50;1.00;;;;;;5117270;27;20062;-36
2022/04/08 14:02:44;;;;;;;7.55;1.23;;;8.70;1.00;;;;;;5106731;28;20035;-36
2022/04/08 14:05:11;;;;;;;8.50;0.95;;;8.70;1.00;;;;;;5116063;27;20044;-36
2022/04/08 14:07:37;;;;;;;9.32;1.33;;;9.20;1.00;;;;;;5096398;28;20086;-36
2022/04/08 14:10:03;;;;;;;9.05;1.02;;;9.50;99.90;;;;;;5096991;28;20074;-36
2022/04/08 14:12:29;;;;;;;6.43;1.17;;;9.70;99.90;;;;;;5115163;27;20103;-37
2022/04/08 14:14:55;;;;;;;6.32;1.20;;;9.50;99.90;;;;;;5114434;28;20091;-36
2022/04/08 14:17:21;;;;;;;4.15;0.52;;;9.60;99.90;;;;;;5114460;28;20052;-36
2022/04/08 14:19:47;;;;;;;7.43;1.02;;;9.90;99.90;;;;;;5080561;28;20035;-37
2022/04/08 14:22:13;;;;;;;4.47;0.90;;;9.50;99.90;;;;;;5062502;28;20047;-36
2022/04/08 14:24:39;;;;;;;6.75;1.10;;;9.00;99.90;;;;;;5085190;28;20439;-36
2022/04/08 14:27:04;;;;;;;14.75;1.85;;;8.60;99.90;;;;;;5079705;28;20039;-36
2022/04/08 14:29:30;;;;;;;7.82;1.05;;;8.40;1.00;;;;;;5095776;28;20055;-36
2022/04/08 14:31:56;;;;;;;5.53;0.90;;;8.30;1.00;;;;;;5116619;27;20041;-37
2022/04/08 14:34:22;;;;;;;7.70;1.58;;;8.20;1.00;;;;;;5133192;27;20480;-36
2022/04/08 14:36:48;;;;;;;6.22;1.10;;;8.40;1.00;;;;;;5117014;27;20043;-36
2022/04/08 14:39:15;;;;;;;7.35;1.38;;;8.70;1.00;;;;;;5132944;27;20077;-36
2022/04/08 14:41:42;;;;;;;8.45;1.58;;;9.10;1.00;;;;;;5134604;27;20100;-36